PWSweather.com
Personal Weather Stations
Station Observations
KILMORRI1
Goose Lake, Morris, IL 60450

Goose LakeMorris, IL 60450

Lat: 41.34, Lon: -88.3

Elevation: 523

Station Type:

Latest ConditionsUpdated 9:50:05 PM CST Sunday, Feb 19, 2017
Currently Today's Max Today's Min Today's Average
Temperature 53.3°F11.8°C 67.8°F19.9°C 29.9°F-1.2°C 48.5°F9.2°C
Dew Point 43.7°F6.5°C 46.4°F8.0°C 28.6°F-1.9°C 38.7°F3.7°C
Winds 2.3 mph SSE3.7 kmh SSE 5.8 mph ESE9.3 kmh ESE - 1.7 mph 2.7 kmh
Wind Gusts 3.5 mph5.6 kmh 9.2 mph14.8 kmh - -
Humidity 70% 97% 36% 73%
Pressure 30.08 in1018.6 mb 30.08 in1018.6 mb 29.84 in1010.5 mb -
Hour Temp Dew Point Humidity Winds Wind Gusts Pressure Precip Precip Rate Daily Precip Total
09:50 PM 53.3°F11.8°C 43.7°F6.5°C 70% 2.3 mph SSE3.7 kmh SSE 3.5 mph5.6 kmh 30.08 in1018.6 mb - 0.00 in0.0 mm 0.00 in0.0 mm
09:40 PM 53.4°F11.9°C 43.9°F6.6°C 70% 3.5 mph SSE5.6 kmh SSE 4.6 mph7.4 kmh 30.07 in1018.3 mb - 0.00 in0.0 mm 0.00 in0.0 mm
09:30 PM 53.2°F11.8°C 44.0°F6.7°C 71% 4.6 mph SSE7.4 kmh SSE 6.9 mph11.1 kmh 30.07 in1018.3 mb - 0.00 in0.0 mm 0.00 in0.0 mm
09:20 PM 53.3°F11.8°C 44.5°F6.9°C 72% 5.8 mph SSE9.3 kmh SSE 9.2 mph14.8 kmh 30.07 in1018.3 mb - 0.00 in0.0 mm 0.00 in0.0 mm
09:10 PM 51.8°F11.0°C 43.8°F6.6°C 74% 3.5 mph SSE5.6 kmh SSE 6.9 mph11.1 kmh 30.07 in1018.3 mb - 0.00 in0.0 mm 0.00 in0.0 mm
09:00 PM 51.7°F10.9°C 44.0°F6.7°C 75% 3.5 mph SE5.6 kmh SE 3.5 mph5.6 kmh 30.07 in1018.3 mb - 0.00 in0.0 mm 0.00 in0.0 mm
08:50 PM 51.2°F10.7°C 43.9°F6.6°C 76% 2.3 mph SE3.7 kmh SE 4.6 mph7.4 kmh 30.06 in1017.9 mb - 0.00 in0.0 mm 0.00 in0.0 mm
08:40 PM 50.7°F10.4°C 43.7°F6.5°C 77% 3.5 mph SE5.6 kmh SE 4.6 mph7.4 kmh 30.06 in1017.9 mb - 0.00 in0.0 mm 0.00 in0.0 mm
08:30 PM 50.6°F10.3°C 43.6°F6.4°C 77% 3.5 mph SE5.6 kmh SE 4.6 mph7.4 kmh 30.05 in1017.6 mb - 0.00 in0.0 mm 0.00 in0.0 mm
08:20 PM 50.9°F10.5°C 43.9°F6.6°C 77% 3.5 mph SE5.6 kmh SE 3.5 mph5.6 kmh 30.06 in1017.9 mb - 0.00 in0.0 mm 0.00 in0.0 mm
08:10 PM 50.9°F10.5°C 43.6°F6.4°C 76% 2.3 mph SE3.7 kmh SE 3.5 mph5.6 kmh 30.06 in1017.9 mb - 0.00 in0.0 mm 0.00 in0.0 mm
08:00 PM 50.9°F10.5°C 43.9°F6.6°C 77% 3.5 mph SE5.6 kmh SE 3.5 mph5.6 kmh 30.05 in1017.6 mb - 0.00 in0.0 mm 0.00 in0.0 mm
07:50 PM 51.0°F10.6°C 43.7°F6.5°C 76% 3.5 mph SE5.6 kmh SE 4.6 mph7.4 kmh 30.05 in1017.6 mb - 0.00 in0.0 mm 0.00 in0.0 mm
07:40 PM 51.2°F10.7°C 43.9°F6.6°C 76% 2.3 mph SE3.7 kmh SE 3.5 mph5.6 kmh 30.05 in1017.6 mb - 0.00 in0.0 mm 0.00 in0.0 mm
07:30 PM 51.2°F10.7°C 43.5°F6.4°C 75% 3.5 mph SE5.6 kmh SE 4.6 mph7.4 kmh 30.05 in1017.6 mb - 0.00 in0.0 mm 0.00 in0.0 mm
07:20 PM 51.2°F10.7°C 43.2°F6.2°C 74% 2.3 mph SE3.7 kmh SE 3.5 mph5.6 kmh 30.05 in1017.6 mb - 0.00 in0.0 mm 0.00 in0.0 mm
07:10 PM 51.3°F10.7°C 43.0°F6.1°C 73% 2.3 mph SE3.7 kmh SE 3.5 mph5.6 kmh 30.05 in1017.6 mb - 0.00 in0.0 mm 0.00 in0.0 mm
07:00 PM 51.9°F11.1°C 43.6°F6.4°C 73% 2.3 mph SE3.7 kmh SE 3.5 mph5.6 kmh 30.05 in1017.6 mb - 0.00 in0.0 mm 0.00 in0.0 mm
06:50 PM 51.8°F11.0°C 43.4°F6.3°C 73% 2.3 mph SE3.7 kmh SE 3.5 mph5.6 kmh 30.05 in1017.6 mb - 0.00 in0.0 mm 0.00 in0.0 mm
06:40 PM 51.0°F10.6°C 42.3°F5.7°C 72% 3.5 mph SE5.6 kmh SE 5.8 mph9.3 kmh 30.04 in1017.3 mb - 0.00 in0.0 mm 0.00 in0.0 mm
06:30 PM 51.8°F11.0°C 42.0°F5.6°C 69% 2.3 mph SE3.7 kmh SE 3.5 mph5.6 kmh 30.05 in1017.6 mb - 0.00 in0.0 mm 0.00 in0.0 mm
06:20 PM 52.6°F11.4°C 41.9°F5.5°C 67% 2.3 mph SE3.7 kmh SE 3.5 mph5.6 kmh 30.04 in1017.3 mb - 0.00 in0.0 mm 0.00 in0.0 mm
06:10 PM 52.2°F11.2°C 41.6°F5.3°C 67% 2.3 mph SE3.7 kmh SE 3.5 mph5.6 kmh 30.04 in1017.3 mb - 0.00 in0.0 mm 0.00 in0.0 mm
06:00 PM 53.4°F11.9°C 41.5°F5.3°C 64% 2.3 mph SE3.7 kmh SE 3.5 mph5.6 kmh 30.04 in1017.3 mb - 0.00 in0.0 mm 0.00 in0.0 mm
05:50 PM 55.1°F12.8°C 41.9°F5.5°C 61% 2.3 mph SE3.7 kmh SE 3.5 mph5.6 kmh 30.04 in1017.3 mb - 0.00 in0.0 mm 0.00 in0.0 mm
05:40 PM 56.2°F13.4°C 42.1°F5.6°C 59% 3.5 mph SE5.6 kmh SE 3.5 mph5.6 kmh 30.04 in1017.3 mb - 0.00 in0.0 mm 0.00 in0.0 mm
05:30 PM 56.9°F13.8°C 40.4°F4.7°C 54% 2.3 mph SE3.7 kmh SE 3.5 mph5.6 kmh 30.04 in1017.3 mb - 0.00 in0.0 mm 0.00 in0.0 mm
05:20 PM 58.4°F14.7°C 38.8°F3.8°C 48% 2.3 mph SE3.7 kmh SE 3.5 mph5.6 kmh 30.04 in1017.3 mb - 0.00 in0.0 mm 0.00 in0.0 mm
05:10 PM 60.7°F15.9°C 38.6°F3.7°C 44% Calm Calm 2.3 mph3.7 kmh 30.04 in1017.3 mb - 0.00 in0.0 mm 0.00 in0.0 mm
05:00 PM 62.8°F17.1°C 40.0°F4.4°C 43% 1.2 mph S1.9 kmh S 2.3 mph3.7 kmh 30.04 in1017.3 mb - 0.00 in0.0 mm 0.00 in0.0 mm
04:50 PM 64.6°F18.1°C 39.7°F4.3°C 40% 1.2 mph S1.9 kmh S 3.5 mph5.6 kmh 30.03 in1016.9 mb - 0.00 in0.0 mm 0.00 in0.0 mm
04:40 PM 65.5°F18.6°C 38.5°F3.6°C 37% 1.2 mph SSE1.9 kmh SSE 4.6 mph7.4 kmh 30.03 in1016.9 mb - 0.00 in0.0 mm 0.00 in0.0 mm
04:30 PM 65.7°F18.7°C 38.0°F3.3°C 36% 4.6 mph S7.4 kmh S 6.9 mph11.1 kmh 30.03 in1016.9 mb - 0.00 in0.0 mm 0.00 in0.0 mm
04:20 PM 66.2°F19.0°C 39.8°F4.3°C 38% 2.3 mph SW3.7 kmh SW 4.6 mph7.4 kmh 30.02 in1016.6 mb - 0.00 in0.0 mm 0.00 in0.0 mm
04:10 PM 66.5°F19.2°C 40.1°F4.5°C 38% 3.5 mph S5.6 kmh S 9.2 mph14.8 kmh 30.03 in1016.9 mb - 0.00 in0.0 mm 0.00 in0.0 mm
04:00 PM 66.9°F19.4°C 39.0°F3.9°C 36% 5.8 mph S9.3 kmh S 6.9 mph11.1 kmh 30.03 in1016.9 mb - 0.00 in0.0 mm 0.00 in0.0 mm
03:50 PM 66.6°F19.2°C 40.8°F4.9°C 39% 2.3 mph SSW3.7 kmh SSW 3.5 mph5.6 kmh 30.03 in1016.9 mb - 0.00 in0.0 mm 0.00 in0.0 mm
03:40 PM 66.7°F19.3°C 41.6°F5.3°C 40% 2.3 mph SSE3.7 kmh SSE 5.8 mph9.3 kmh 30.03 in1016.9 mb - 0.00 in0.0 mm 0.00 in0.0 mm
03:30 PM 67.7°F19.8°C 43.8°F6.6°C 42% 2.3 mph SE3.7 kmh SE 4.6 mph7.4 kmh 30.03 in1016.9 mb - 0.00 in0.0 mm 0.00 in0.0 mm
03:20 PM 67.8°F19.9°C 43.9°F6.6°C 42% 3.5 mph SW5.6 kmh SW 4.6 mph7.4 kmh 30.04 in1017.3 mb - 0.00 in0.0 mm 0.00 in0.0 mm
03:10 PM 67.1°F19.5°C 44.5°F6.9°C 44% 2.3 mph SE3.7 kmh SE 3.5 mph5.6 kmh 30.03 in1016.9 mb - 0.00 in0.0 mm 0.00 in0.0 mm
03:00 PM 67.7°F19.8°C 44.4°F6.9°C 43% 3.5 mph SE5.6 kmh SE 5.8 mph9.3 kmh 30.03 in1016.9 mb - 0.00 in0.0 mm 0.00 in0.0 mm
02:50 PM 67.4°F19.7°C 43.5°F6.4°C 42% 3.5 mph SSW5.6 kmh SSW 4.6 mph7.4 kmh 30.03 in1016.9 mb - 0.00 in0.0 mm 0.00 in0.0 mm
02:40 PM 67.2°F19.6°C 45.1°F7.3°C 45% 3.5 mph S5.6 kmh S 5.8 mph9.3 kmh 30.03 in1016.9 mb - 0.00 in0.0 mm 0.00 in0.0 mm
02:30 PM 67.5°F19.7°C 45.4°F7.4°C 45% 2.3 mph SSW3.7 kmh SSW 3.5 mph5.6 kmh 30.03 in1016.9 mb - 0.00 in0.0 mm 0.00 in0.0 mm
02:20 PM 67.0°F19.4°C 44.9°F7.2°C 45% 2.3 mph SE3.7 kmh SE 4.6 mph7.4 kmh 30.03 in1016.9 mb - 0.00 in0.0 mm 0.00 in0.0 mm
02:10 PM 67.0°F19.4°C 44.9°F7.2°C 45% 5.8 mph SW9.3 kmh SW 8.1 mph13.0 kmh 30.03 in1016.9 mb - 0.00 in0.0 mm 0.00 in0.0 mm
02:00 PM 66.7°F19.3°C 44.7°F7.1°C 45% 2.3 mph SSW3.7 kmh SSW 4.6 mph7.4 kmh 30.03 in1016.9 mb - 0.00 in0.0 mm 0.00 in0.0 mm
01:50 PM 66.4°F19.1°C 44.4°F6.9°C 45% 2.3 mph SSW3.7 kmh SSW 3.5 mph5.6 kmh 30.03 in1016.9 mb - 0.00 in0.0 mm 0.00 in0.0 mm
01:40 PM 65.8°F18.8°C 44.4°F6.9°C 46% 3.5 mph SSW5.6 kmh SSW 4.6 mph7.4 kmh 30.03 in1016.9 mb - 0.00 in0.0 mm 0.00 in0.0 mm
01:30 PM 66.3°F19.1°C 46.0°F7.8°C 48% 2.3 mph S3.7 kmh S 4.6 mph7.4 kmh 30.03 in1016.9 mb - 0.00 in0.0 mm 0.00 in0.0 mm
01:20 PM 65.3°F18.5°C 45.1°F7.3°C 48% 1.2 mph SSW1.9 kmh SSW 2.3 mph3.7 kmh 30.03 in1016.9 mb - 0.00 in0.0 mm 0.00 in0.0 mm
01:10 PM 65.4°F18.6°C 44.0°F6.7°C 46% 2.3 mph SSE3.7 kmh SSE 3.5 mph5.6 kmh 30.04 in1017.3 mb - 0.00 in0.0 mm 0.00 in0.0 mm
01:00 PM 65.1°F18.4°C 46.0°F7.8°C 50% 3.5 mph SE5.6 kmh SE 4.6 mph7.4 kmh 30.04 in1017.3 mb - 0.00 in0.0 mm 0.00 in0.0 mm
12:50 PM 65.0°F18.3°C 45.4°F7.4°C 49% 3.5 mph S5.6 kmh S 8.1 mph13.0 kmh 30.04 in1017.3 mb - 0.00 in0.0 mm 0.00 in0.0 mm
12:40 PM 64.4°F18.0°C 44.2°F6.8°C 48% 3.5 mph SSE5.6 kmh SSE 3.5 mph5.6 kmh 30.04 in1017.3 mb - 0.00 in0.0 mm 0.00 in0.0 mm
12:30 PM 64.1°F17.8°C 45.1°F7.3°C 50% 3.5 mph SE5.6 kmh SE 3.5 mph5.6 kmh 30.04 in1017.3 mb - 0.00 in0.0 mm 0.00 in0.0 mm
12:20 PM 64.6°F18.1°C 45.5°F7.5°C 50% 2.3 mph S3.7 kmh S 4.6 mph7.4 kmh 30.04 in1017.3 mb - 0.00 in0.0 mm 0.00 in0.0 mm
12:10 PM 64.0°F17.8°C 44.5°F6.9°C 49% 3.5 mph S5.6 kmh S 3.5 mph5.6 kmh 30.04 in1017.3 mb - 0.00 in0.0 mm 0.00 in0.0 mm
12:00 PM 64.0°F17.8°C 45.0°F7.2°C 50% 5.8 mph ESE9.3 kmh ESE 8.1 mph13.0 kmh 30.04 in1017.3 mb - 0.00 in0.0 mm 0.00 in0.0 mm
11:50 AM 63.0°F17.2°C 43.5°F6.4°C 49% 5.8 mph ESE9.3 kmh ESE 8.1 mph13.0 kmh 30.05 in1017.6 mb - 0.00 in0.0 mm 0.00 in0.0 mm
11:40 AM 63.2°F17.3°C 43.7°F6.5°C 49% 4.6 mph SE7.4 kmh SE 4.6 mph7.4 kmh 30.05 in1017.6 mb - 0.00 in0.0 mm 0.00 in0.0 mm
11:30 AM 62.7°F17.1°C 43.8°F6.6°C 50% 4.6 mph S7.4 kmh S 8.1 mph13.0 kmh 30.06 in1017.9 mb - 0.00 in0.0 mm 0.00 in0.0 mm
11:20 AM 62.4°F16.9°C 44.5°F6.9°C 52% 1.2 mph SSW1.9 kmh SSW 3.5 mph5.6 kmh 30.06 in1017.9 mb - 0.00 in0.0 mm 0.00 in0.0 mm
11:10 AM 61.6°F16.4°C 44.3°F6.8°C 53% 4.6 mph SSE7.4 kmh SSE 6.9 mph11.1 kmh 30.05 in1017.6 mb - 0.00 in0.0 mm 0.00 in0.0 mm
11:00 AM 61.0°F16.1°C 44.7°F7.1°C 55% 4.6 mph SE7.4 kmh SE 8.1 mph13.0 kmh 30.05 in1017.6 mb - 0.00 in0.0 mm 0.00 in0.0 mm
10:50 AM 60.0°F15.6°C 44.2°F6.8°C 56% 3.5 mph S5.6 kmh S 4.6 mph7.4 kmh 30.05 in1017.6 mb - 0.00 in0.0 mm 0.00 in0.0 mm
10:40 AM 59.3°F15.2°C 44.5°F6.9°C 58% 3.5 mph SSW5.6 kmh SSW 4.6 mph7.4 kmh 30.05 in1017.6 mb - 0.00 in0.0 mm 0.00 in0.0 mm
10:30 AM 58.5°F14.7°C 45.1°F7.3°C 61% 1.2 mph S1.9 kmh S 3.5 mph5.6 kmh 30.05 in1017.6 mb - 0.00 in0.0 mm 0.00 in0.0 mm
10:20 AM 57.2°F14.0°C 45.6°F7.6°C 65% Calm Calm -- 30.05 in1017.6 mb - 0.00 in0.0 mm 0.00 in0.0 mm
10:10 AM 55.4°F13.0°C 45.4°F7.4°C 69% Calm Calm 2.3 mph3.7 kmh 30.05 in1017.6 mb - 0.00 in0.0 mm 0.00 in0.0 mm
10:00 AM 54.4°F12.4°C 45.6°F7.6°C 72% 1.2 mph E1.9 kmh E 3.5 mph5.6 kmh 30.05 in1017.6 mb - 0.00 in0.0 mm 0.00 in0.0 mm
09:50 AM 52.4°F11.3°C 45.7°F7.6°C 78% 1.2 mph ESE1.9 kmh ESE 3.5 mph5.6 kmh 30.05 in1017.6 mb - 0.00 in0.0 mm 0.00 in0.0 mm
09:40 AM 50.8°F10.4°C 46.4°F8.0°C 85% 1.2 mph NE1.9 kmh NE 2.3 mph3.7 kmh 30.05 in1017.6 mb - 0.00 in0.0 mm 0.00 in0.0 mm
09:30 AM 49.3°F9.6°C 46.1°F7.8°C 89% 2.3 mph ENE3.7 kmh ENE 3.5 mph5.6 kmh 30.05 in1017.6 mb - 0.00 in0.0 mm 0.00 in0.0 mm
09:20 AM 47.7°F8.7°C 45.5°F7.5°C 92% Calm Calm 1.2 mph1.9 kmh 30.05 in1017.6 mb - 0.00 in0.0 mm 0.00 in0.0 mm
09:10 AM 45.0°F7.2°C 44.2°F6.8°C 97% Calm Calm -- 30.05 in1017.6 mb - 0.00 in0.0 mm 0.00 in0.0 mm
09:00 AM 43.2°F6.2°C 42.4°F5.8°C 97% Calm Calm -- 30.05 in1017.6 mb - 0.00 in0.0 mm 0.00 in0.0 mm
08:50 AM 42.1°F5.6°C 41.3°F5.2°C 97% Calm Calm -- 30.05 in1017.6 mb - 0.00 in0.0 mm 0.00 in0.0 mm
08:40 AM 41.0°F5.0°C 40.0°F4.4°C 96% Calm Calm -- 30.04 in1017.3 mb - 0.00 in0.0 mm 0.00 in0.0 mm
08:30 AM 39.8°F4.3°C 38.8°F3.8°C 96% Calm Calm -- 30.04 in1017.3 mb - 0.00 in0.0 mm 0.00 in0.0 mm
08:20 AM 39.6°F4.2°C 38.3°F3.5°C 95% Calm Calm -- 30.03 in1016.9 mb - 0.00 in0.0 mm 0.00 in0.0 mm
08:10 AM 38.9°F3.8°C 37.6°F3.1°C 95% Calm Calm -- 30.03 in1016.9 mb - 0.00 in0.0 mm 0.00 in0.0 mm
08:00 AM 36.8°F2.7°C 35.7°F2.1°C 96% Calm Calm -- 30.02 in1016.6 mb - 0.00 in0.0 mm 0.00 in0.0 mm
07:50 AM 34.7°F1.5°C 33.7°F0.9°C 96% Calm Calm -- 30.02 in1016.6 mb - 0.00 in0.0 mm 0.00 in0.0 mm
07:40 AM 33.3°F0.7°C 32.3°F0.2°C 96% Calm Calm -- 30.02 in1016.6 mb - 0.00 in0.0 mm 0.00 in0.0 mm
07:30 AM 32.3°F0.2°C 31.3°F-0.4°C 96% Calm Calm -- 30.02 in1016.6 mb - 0.00 in0.0 mm 0.00 in0.0 mm
07:20 AM 31.3°F-0.4°C 30.1°F-1.1°C 95% Calm Calm -- 30.02 in1016.6 mb - 0.00 in0.0 mm 0.00 in0.0 mm
07:10 AM 30.6°F-0.8°C 29.4°F-1.4°C 95% Calm Calm -- 30.01 in1016.3 mb - 0.00 in0.0 mm 0.00 in0.0 mm
07:00 AM 29.9°F-1.2°C 28.6°F-1.9°C 95% Calm Calm -- 30.00 in1015.9 mb - 0.00 in0.0 mm 0.00 in0.0 mm
06:50 AM 30.1°F-1.1°C 28.6°F-1.9°C 94% Calm Calm -- 30.00 in1015.9 mb - 0.00 in0.0 mm 0.00 in0.0 mm
06:40 AM 30.4°F-0.9°C 29.1°F-1.6°C 95% Calm Calm -- 30.00 in1015.9 mb - 0.00 in0.0 mm 0.00 in0.0 mm
06:30 AM 30.6°F-0.8°C 29.0°F-1.7°C 94% Calm Calm -- 30.00 in1015.9 mb - 0.00 in0.0 mm 0.00 in0.0 mm
06:20 AM 30.7°F-0.7°C 29.2°F-1.6°C 94% Calm Calm -- 29.99 in1015.6 mb - 0.00 in0.0 mm 0.00 in0.0 mm
06:10 AM 30.5°F-0.8°C 29.0°F-1.7°C 94% Calm Calm -- 29.98 in1015.2 mb - 0.00 in0.0 mm 0.00 in0.0 mm
06:00 AM 30.5°F-0.8°C 29.0°F-1.7°C 94% Calm Calm -- 29.98 in1015.2 mb - 0.00 in0.0 mm 0.00 in0.0 mm
05:50 AM 31.1°F-0.5°C 29.6°F-1.3°C 94% Calm Calm -- 29.98 in1015.2 mb - 0.00 in0.0 mm 0.00 in0.0 mm
05:40 AM 31.1°F-0.5°C 29.5°F-1.4°C 94% Calm Calm -- 29.97 in1014.9 mb - 0.00 in0.0 mm 0.00 in0.0 mm
05:30 AM 31.2°F-0.4°C 29.7°F-1.3°C 94% 1.2 mph W1.9 kmh W 1.2 mph1.9 kmh 29.96 in1014.6 mb - 0.00 in0.0 mm 0.00 in0.0 mm
05:20 AM 31.6°F-0.2°C 30.1°F-1.1°C 94% Calm Calm -- 29.96 in1014.6 mb - 0.00 in0.0 mm 0.00 in0.0 mm
05:10 AM 31.5°F-0.3°C 30.0°F-1.1°C 94% Calm Calm -- 29.95 in1014.2 mb - 0.00 in0.0 mm 0.00 in0.0 mm
05:00 AM 31.8°F-0.1°C 30.3°F-0.9°C 94% Calm Calm -- 29.95 in1014.2 mb - 0.00 in0.0 mm 0.00 in0.0 mm
04:50 AM 32.0°F0.0°C 30.5°F-0.8°C 94% 1.2 mph W1.9 kmh W 1.2 mph1.9 kmh 29.95 in1014.2 mb - 0.00 in0.0 mm 0.00 in0.0 mm
04:40 AM 31.8°F-0.1°C 30.3°F-0.9°C 94% Calm Calm -- 29.94 in1013.9 mb - 0.00 in0.0 mm 0.00 in0.0 mm
04:30 AM 31.8°F-0.1°C 30.3°F-0.9°C 94% Calm Calm -- 29.94 in1013.9 mb - 0.00 in0.0 mm 0.00 in0.0 mm
04:20 AM 31.8°F-0.1°C 30.3°F-0.9°C 94% Calm Calm -- 29.94 in1013.9 mb - 0.00 in0.0 mm 0.00 in0.0 mm
04:10 AM 31.7°F-0.2°C 29.9°F-1.2°C 93% Calm Calm -- 29.94 in1013.9 mb - 0.00 in0.0 mm 0.00 in0.0 mm
04:00 AM 32.0°F0.0°C 30.2°F-1.0°C 93% Calm Calm -- 29.93 in1013.5 mb - 0.00 in0.0 mm 0.00 in0.0 mm
03:50 AM 32.4°F0.2°C 30.6°F-0.8°C 93% Calm Calm -- 29.93 in1013.5 mb - 0.00 in0.0 mm 0.00 in0.0 mm
03:40 AM 32.8°F0.4°C 31.0°F-0.6°C 93% Calm Calm -- 29.93 in1013.5 mb - 0.00 in0.0 mm 0.00 in0.0 mm
03:30 AM 33.0°F0.6°C 31.2°F-0.4°C 93% Calm Calm -- 29.92 in1013.2 mb - 0.00 in0.0 mm 0.00 in0.0 mm
03:20 AM 33.1°F0.6°C 31.3°F-0.4°C 93% Calm Calm -- 29.92 in1013.2 mb - 0.00 in0.0 mm 0.00 in0.0 mm
03:10 AM 32.9°F0.5°C 31.1°F-0.5°C 93% Calm Calm -- 29.91 in1012.9 mb - 0.00 in0.0 mm 0.00 in0.0 mm
03:00 AM 33.4°F0.8°C 31.6°F-0.2°C 93% Calm Calm -- 29.90 in1012.5 mb - 0.00 in0.0 mm 0.00 in0.0 mm
02:50 AM 33.2°F0.7°C 31.4°F-0.3°C 93% Calm Calm -- 29.90 in1012.5 mb - 0.00 in0.0 mm 0.00 in0.0 mm
02:40 AM 33.5°F0.8°C 31.4°F-0.3°C 92% Calm Calm -- 29.89 in1012.2 mb - 0.00 in0.0 mm 0.00 in0.0 mm
02:30 AM 33.6°F0.9°C 31.5°F-0.3°C 92% Calm Calm -- 29.89 in1012.2 mb - 0.00 in0.0 mm 0.00 in0.0 mm
02:20 AM 33.8°F1.0°C 31.7°F-0.2°C 92% Calm Calm -- 29.89 in1012.2 mb - 0.00 in0.0 mm 0.00 in0.0 mm
02:10 AM 33.8°F1.0°C 31.7°F-0.2°C 92% Calm Calm -- 29.89 in1012.2 mb - 0.00 in0.0 mm 0.00 in0.0 mm
02:00 AM 34.0°F1.1°C 31.9°F-0.1°C 92% Calm Calm -- 29.89 in1012.2 mb - 0.00 in0.0 mm 0.00 in0.0 mm
01:50 AM 34.1°F1.2°C 32.0°F0.0°C 92% Calm Calm -- 29.89 in1012.2 mb - 0.00 in0.0 mm 0.00 in0.0 mm
01:40 AM 34.4°F1.3°C 32.0°F0.0°C 91% 1.2 mph W1.9 kmh W 1.2 mph1.9 kmh 29.89 in1012.2 mb - 0.00 in0.0 mm 0.00 in0.0 mm
01:30 AM 34.6°F1.4°C 32.5°F0.3°C 92% Calm Calm -- 29.89 in1012.2 mb - 0.00 in0.0 mm 0.00 in0.0 mm
01:20 AM 34.7°F1.5°C 32.3°F0.2°C 91% 1.2 mph W1.9 kmh W 1.2 mph1.9 kmh 29.88 in1011.9 mb - 0.00 in0.0 mm 0.00 in0.0 mm
01:10 AM 34.8°F1.6°C 32.5°F0.3°C 91% 1.2 mph W1.9 kmh W 1.2 mph1.9 kmh 29.88 in1011.9 mb - 0.00 in0.0 mm 0.00 in0.0 mm
01:00 AM 35.1°F1.7°C 32.4°F0.2°C 90% 1.2 mph W1.9 kmh W 1.2 mph1.9 kmh 29.86 in1011.2 mb - 0.00 in0.0 mm 0.00 in0.0 mm
12:50 AM 35.3°F1.8°C 32.6°F0.3°C 90% 1.2 mph W1.9 kmh W 1.2 mph1.9 kmh 29.86 in1011.2 mb - 0.00 in0.0 mm 0.00 in0.0 mm
12:40 AM 35.5°F1.9°C 32.9°F0.5°C 90% 1.2 mph W1.9 kmh W 2.3 mph3.7 kmh 29.86 in1011.2 mb - 0.00 in0.0 mm 0.00 in0.0 mm
12:30 AM 35.8°F2.1°C 33.2°F0.7°C 90% Calm Calm -- 29.85 in1010.8 mb - 0.00 in0.0 mm 0.00 in0.0 mm
12:20 AM 36.1°F2.3°C 33.5°F0.8°C 90% Calm Calm -- 29.85 in1010.8 mb - 0.00 in0.0 mm 0.00 in0.0 mm
12:10 AM 35.9°F2.2°C 33.6°F0.9°C 91% Calm Calm -- 29.85 in1010.8 mb - 0.00 in0.0 mm 0.00 in0.0 mm
12:00 AM 35.5°F1.9°C 33.2°F0.7°C 91% Calm Calm -- 29.84 in1010.5 mb - 0.00 in0.0 mm 0.00 in0.0 mm